Time;durP1;ratioP1;P1;durP2;ratioP2;P2;SDS_P1;SDS_P2;PMS_P1;PMS_P2;Temp;Humidity;BMP_temperature;BMP_pressure;BME280_temperature;BME280_humidity;BME280_pressure;Samples;Min_cycle;Max_cycle;Signal;HPM_P1;HPM_P2
2021/10/14 00:00:26;;;;;;;26.47;11.70;;;;;;;9.12;100.00;101610.38;5127857;27;20046;-78
2021/10/14 00:02:52;;;;;;;33.83;13.25;;;;;;;9.18;100.00;101619.69;5128816;27;20099;-77
2021/10/14 00:05:17;;;;;;;27.87;13.47;;;;;;;9.22;100.00;101629.91;5127500;27;20023;-77
2021/10/14 00:07:43;;;;;;;31.85;13.75;;;;;;;9.34;100.00;101627.16;5127720;27;20078;-77
2021/10/14 00:10:08;;;;;;;28.43;13.90;;;;;;;9.35;100.00;101620.88;5127732;27;20062;-78
2021/10/14 00:12:34;;;;;;;27.93;11.93;;;;;;;9.34;100.00;101622.72;5110877;27;20046;-77
2021/10/14 00:15:00;;;;;;;31.37;14.17;;;;;;;9.41;100.00;101625.66;5128495;27;20031;-77
2021/10/14 00:17:26;;;;;;;27.38;13.18;;;;;;;9.35;100.00;101624.38;5127783;27;20035;-78
2021/10/14 00:19:51;;;;;;;31.90;13.68;;;;;;;9.48;100.00;101624.13;5127780;27;20039;-78
2021/10/14 00:22:17;;;;;;;26.33;11.83;;;;;;;9.55;100.00;101632.44;5127545;27;20058;-78
2021/10/14 00:24:42;;;;;;;31.53;14.40;;;;;;;9.45;100.00;101619.91;5128591;27;20306;-81
2021/10/14 00:27:08;;;;;;;28.70;12.97;;;;;;;9.45;100.00;101614.59;5128497;27;20031;-78
2021/10/14 00:29:33;;;;;;;32.37;14.07;;;;;;;9.54;100.00;101626.28;5110434;27;20066;-78
2021/10/14 00:31:58;;;;;;;33.83;13.77;;;;;;;9.49;100.00;101612.53;5110597;27;20057;-78
2021/10/14 00:34:24;;;;;;;33.20;15.10;;;;;;;9.60;100.00;101623.09;5127154;27;20383;-78
2021/10/14 00:36:50;;;;;;;32.78;14.80;;;;;;;9.67;100.00;101621.56;5127297;27;20027;-78
2021/10/14 00:39:15;;;;;;;30.80;14.97;;;;;;;9.66;100.00;101617.19;5127158;27;20464;-78
2021/10/14 00:41:40;;;;;;;45.67;15.67;;;;;;;9.64;100.00;101616.47;5127187;27;20609;-79
2021/10/14 00:44:06;;;;;;;36.67;14.50;;;;;;;9.63;100.00;101606.81;5126993;27;20096;-79
2021/10/14 00:46:31;;;;;;;31.13;13.63;;;;;;;9.71;100.00;101612.28;5110090;27;20478;-78
2021/10/14 00:48:57;;;;;;;32.85;14.35;;;;;;;9.72;100.00;101603.34;5127062;27;20031;-78
2021/10/14 00:51:22;;;;;;;34.33;14.37;;;;;;;9.70;100.00;101615.97;5110303;28;20042;-78
2021/10/14 00:53:48;;;;;;;37.43;15.00;;;;;;;9.69;100.00;101608.94;5126830;27;20368;-79
2021/10/14 00:56:15;;;;;;;34.80;15.87;;;;;;;9.82;100.00;101613.19;5128352;27;20349;-77
2021/10/14 00:58:41;;;;;;;31.80;15.07;;;;;;;9.84;100.00;101603.22;5110233;28;20035;-77
2021/10/14 01:01:07;;;;;;;30.23;12.70;;;;;;;9.82;100.00;101594.53;5127206;27;20039;-78
2021/10/14 01:03:33;;;;;;;32.03;13.20;;;;;;;9.88;100.00;101601.97;5127325;28;20473;-79
2021/10/14 01:05:59;;;;;;;37.45;14.38;;;;;;;9.81;100.00;101585.69;5127948;28;20421;-78
2021/10/14 01:08:25;;;;;;;34.92;13.73;;;;;;;9.90;100.00;101592.00;5127165;28;20027;-78
2021/10/14 01:10:51;;;;;;;28.08;12.35;;;;;;;9.99;100.00;101588.50;5126937;28;20063;-78
2021/10/14 01:13:18;;;;;;;26.35;12.60;;;;;;;10.03;100.00;101576.59;5126608;27;20046;-78
2021/10/14 01:15:44;;;;;;;28.60;13.40;;;;;;;9.99;100.00;101577.00;5126888;27;20035;-78
2021/10/14 01:18:10;;;;;;;;;;;;;;;9.99;100.00;101582.31;5127537;27;20023;-78
2021/10/14 01:20:36;;;;;;;;;;;;;;;10.01;100.00;101586.53;5127217;27;19911;-78
2021/10/14 01:23:01;;;;;;;;;;;;;;;9.97;100.00;101587.78;5128228;27;19918;-78
2021/10/14 01:25:27;;;;;;;33.13;13.97;;;;;;;10.03;100.00;101592.59;5126655;27;19911;-78
2021/10/14 01:27:52;;;;;;;37.25;13.52;;;;;;;10.01;100.00;101589.22;5127449;27;20035;-78
2021/10/14 01:30:18;;;;;;;31.00;13.73;;;;;;;10.05;100.00;101587.13;5127498;28;20042;-78
2021/10/14 01:32:44;;;;;;;30.20;13.97;;;;;;;10.07;100.00;101596.69;5126843;28;20039;-79
2021/10/14 01:35:10;;;;;;;31.05;13.32;;;;;;;10.09;100.00;101599.19;5126756;27;20349;-79
2021/10/14 01:37:36;;;;;;;40.08;13.70;;;;;;;10.09;100.00;101605.38;5127287;27;20106;-79
2021/10/14 01:40:03;;;;;;;32.83;13.07;;;;;;;10.15;100.00;101607.47;5128309;28;20110;-78
2021/10/14 01:42:29;;;;;;;33.97;13.05;;;;;;;10.16;100.00;101619.03;5127253;27;20035;-79
2021/10/14 01:44:54;;;;;;;30.80;12.88;;;;;;;10.17;100.00;101603.84;5127042;27;20031;-79
2021/10/14 01:47:20;;;;;;;43.22;14.30;;;;;;;10.13;100.00;101598.78;5125983;27;20100;-80
2021/10/14 01:49:45;;;;;;;32.13;14.23;;;;;;;10.15;100.00;101604.81;5127738;27;20035;-79
2021/10/14 01:52:11;;;;;;;32.03;12.83;;;;;;;10.13;100.00;101601.44;5127014;28;20070;-79
2021/10/14 01:54:36;;;;;;;35.58;13.18;;;;;;;10.14;100.00;101595.13;5109324;28;20064;-79
2021/10/14 01:57:02;;;;;;;31.30;12.00;;;;;;;10.16;100.00;101600.34;5129244;27;20069;-80
2021/10/14 01:59:27;;;;;;;25.10;11.90;;;;;;;10.16;100.00;101603.00;5131026;27;20403;-79
2021/10/14 02:01:53;;;;;;;37.07;13.73;;;;;;;10.22;100.00;101605.09;5130441;27;20340;-80
2021/10/14 02:04:18;;;;;;;40.50;14.73;;;;;;;10.19;100.00;101602.72;5130336;27;20131;-79
2021/10/14 02:06:44;;;;;;;28.80;12.50;;;;;;;10.23;100.00;101603.28;5130771;27;20072;-79
2021/10/14 02:09:09;;;;;;;24.10;11.20;;;;;;;10.17;100.00;101590.50;5130365;27;20067;-79
2021/10/14 02:11:35;;;;;;;28.03;12.00;;;;;;;10.27;100.00;101596.69;5130444;27;20050;-80
2021/10/14 02:14:00;;;;;;;26.20;11.50;;;;;;;10.31;100.00;101587.44;5131214;27;20027;-79
2021/10/14 02:16:26;;;;;;;37.85;11.55;;;;;;;10.31;100.00;101590.13;5130431;27;20035;-81
2021/10/14 02:18:51;;;;;;;28.30;10.90;;;;;;;10.30;100.00;101583.94;5131121;27;20031;-80
2021/10/14 02:21:17;;;;;;;33.43;13.00;;;;;;;10.32;100.00;101578.44;5113068;27;20657;-79
2021/10/14 02:23:43;;;;;;;21.45;11.18;;;;;;;10.35;100.00;101595.03;5131151;27;20046;-80
2021/10/14 02:26:09;;;;;;;29.70;12.70;;;;;;;10.33;100.00;101582.81;5130261;27;20043;-80
2021/10/14 02:28:34;;;;;;;27.90;11.68;;;;;;;10.26;100.00;101582.50;5131092;27;20043;-80
2021/10/14 02:31:00;;;;;;;32.43;12.20;;;;;;;10.30;100.00;101585.75;5130575;27;20027;-80
2021/10/14 02:33:25;;;;;;;36.73;11.93;;;;;;;10.29;100.00;101590.25;5130730;27;20307;-80
2021/10/14 02:35:51;;;;;;;34.73;12.90;;;;;;;10.34;100.00;101597.84;5130038;27;20027;-80
2021/10/14 02:38:16;;;;;;;36.00;13.63;;;;;;;10.34;100.00;101595.16;5112744;27;20074;-80
2021/10/14 02:40:41;;;;;;;32.93;13.20;;;;;;;10.29;100.00;101595.59;5129882;27;20027;-79
2021/10/14 02:43:07;;;;;;;41.00;13.50;;;;;;;10.38;100.00;101609.94;5129503;27;20125;-79
2021/10/14 02:45:32;;;;;;;34.17;13.23;;;;;;;10.45;100.00;101619.06;5129159;27;20066;-79
2021/10/14 02:47:58;;;;;;;39.40;14.32;;;;;;;10.50;100.00;101616.81;5129783;27;20421;-79
2021/10/14 02:50:24;;;;;;;39.33;14.73;;;;;;;10.45;100.00;101611.06;5130272;27;20038;-80
2021/10/14 02:52:51;;;;;;;41.55;14.82;;;;;;;10.46;100.00;101599.38;5130377;27;20035;-78
2021/10/14 02:55:16;;;;;;;45.07;14.27;;;;;;;10.51;100.00;101626.53;5128855;27;20057;-79
2021/10/14 02:57:41;;;;;;;34.57;14.20;;;;;;;10.53;100.00;101613.84;5128968;27;20035;-78
2021/10/14 03:00:07;;;;;;;40.40;15.50;;;;;;;10.53;100.00;101597.00;5129261;27;20208;-79
2021/10/14 03:02:33;;;;;;;39.30;15.93;;;;;;;10.54;100.00;101610.22;5112046;27;20027;-79
2021/10/14 03:04:59;;;;;;;46.80;18.27;;;;;;;10.56;100.00;101602.91;5111715;27;20533;-78
2021/10/14 03:07:24;;;;;;;56.97;16.67;;;;;;;10.56;100.00;101605.56;5129910;27;20273;-78
2021/10/14 03:09:50;;;;;;;51.22;17.52;;;;;;;10.54;100.00;101604.88;5128805;27;20284;-78
2021/10/14 03:12:15;;;;;;;57.40;18.03;;;;;;;10.54;100.00;101604.03;5128688;27;20038;-78
2021/10/14 03:14:41;;;;;;;51.30;18.52;;;;;;;10.51;100.00;101599.81;5128433;27;20397;-77
2021/10/14 03:17:09;;;;;;;59.03;19.15;;;;;;;10.53;100.00;101597.81;5128821;27;20081;-78
2021/10/14 03:19:35;;;;;;;48.30;17.83;;;;;;;10.52;100.00;101590.81;5128842;27;20346;-78
2021/10/14 03:22:01;;;;;;;50.00;20.17;;;;;;;10.53;100.00;101597.00;5128666;27;20052;-78
2021/10/14 03:24:27;;;;;;;51.95;20.23;;;;;;;10.57;100.00;101603.75;5129256;27;20118;-79
2021/10/14 03:26:52;;;;;;;50.20;18.55;;;;;;;10.54;100.00;101598.69;5128538;27;20330;-79
2021/10/14 03:29:18;;;;;;;47.53;18.70;;;;;;;10.57;100.00;101595.72;5129594;27;20031;-78
2021/10/14 03:31:43;;;;;;;42.53;18.37;;;;;;;10.57;100.00;101596.56;5129144;27;20072;-78
2021/10/14 03:34:09;;;;;;;52.57;18.23;;;;;;;10.52;100.00;101588.16;5128221;27;20043;-78
2021/10/14 03:36:34;;;;;;;56.10;17.07;;;;;;;10.60;100.00;101586.59;5128626;27;20273;-78
2021/10/14 03:39:00;;;;;;;52.77;18.53;;;;;;;10.60;100.00;101586.59;5128647;27;20031;-78
2021/10/14 03:41:25;;;;;;;57.30;17.50;;;;;;;10.63;100.00;101592.50;5128311;27;20030;-78
2021/10/14 03:43:51;;;;;;;52.70;18.27;;;;;;;10.64;100.00;101582.66;5128274;27;20041;-78
2021/10/14 03:46:16;;;;;;;66.63;18.97;;;;;;;10.63;100.00;101587.16;5129285;27;20735;-78
2021/10/14 03:48:42;;;;;;;53.80;17.67;;;;;;;10.68;100.00;101587.56;5129114;27;20035;-78
2021/10/14 03:51:07;;;;;;;49.35;16.52;;;;;;;10.67;100.00;101596.56;5128173;27;20040;-79
2021/10/14 03:53:33;;;;;;;52.22;16.15;;;;;;;10.67;100.00;101598.38;5128710;27;20068;-79
2021/10/14 03:55:58;;;;;;;49.10;16.43;;;;;;;10.70;100.00;101600.75;5111223;27;20449;-78
2021/10/14 03:58:24;;;;;;;53.73;16.87;;;;;;;10.63;100.00;101603.19;5129011;27;20053;-78
2021/10/14 04:00:49;;;;;;;65.65;18.90;;;;;;;10.62;100.00;101606.00;5110874;27;20035;-78
2021/10/14 04:03:15;;;;;;;42.87;15.97;;;;;;;10.60;100.00;101597.28;5127867;27;20080;-78
2021/10/14 04:05:40;;;;;;;60.67;18.30;;;;;;;10.67;100.00;101615.25;5127770;27;20049;-79
2021/10/14 04:08:06;;;;;;;47.30;16.50;;;;;;;10.68;100.00;101616.13;5128782;27;20031;-79
2021/10/14 04:10:31;;;;;;;54.57;18.37;;;;;;;10.69;100.00;101615.94;5128727;27;20725;-81
2021/10/14 04:12:57;;;;;;;55.57;17.47;;;;;;;10.68;100.00;101621.47;5127758;27;20046;-80
2021/10/14 04:15:22;;;;;;;50.10;18.10;;;;;;;10.69;100.00;101613.28;5128308;27;20365;-78
2021/10/14 04:17:48;;;;;;;48.13;16.57;;;;;;;10.76;100.00;101629.59;5127838;27;20043;-78
2021/10/14 04:20:13;;;;;;;54.00;17.60;;;;;;;10.74;100.00;101631.56;5127423;27;20329;-78
2021/10/14 04:22:39;;;;;;;44.00;15.63;;;;;;;10.76;100.00;101624.25;5110231;27;20033;-77
2021/10/14 04:25:05;;;;;;;44.72;15.60;;;;;;;10.81;100.00;101621.97;5127340;27;20613;-78
2021/10/14 04:27:30;;;;;;;55.15;19.58;;;;;;;10.76;100.00;101624.25;5110462;27;20347;-78
2021/10/14 04:29:56;;;;;;;55.63;16.37;;;;;;;10.82;100.00;101631.69;5127460;27;20042;-78
2021/10/14 04:32:22;;;;;;;46.90;15.60;;;;;;;10.76;100.00;101621.56;5127568;27;20361;-79
2021/10/14 04:34:48;;;;;;;46.60;18.48;;;;;;;10.77;100.00;101628.63;5127226;27;20076;-78
2021/10/14 04:37:14;;;;;;;41.10;14.07;;;;;;;10.69;100.00;101620.47;5127305;27;20577;-77
2021/10/14 04:39:39;;;;;;;47.92;16.52;;;;;;;10.74;100.00;101636.91;5127479;27;20058;-78
2021/10/14 04:42:07;;;;;;;41.03;15.77;;;;;;;10.74;100.00;101631.56;5128554;27;20051;-76
2021/10/14 04:44:33;;;;;;;43.83;13.80;;;;;;;10.70;100.00;101625.66;5127462;27;20027;-77
2021/10/14 04:47:02;;;;;;;43.72;13.88;;;;;;;10.77;100.00;101620.59;5127267;27;20035;-76
2021/10/14 04:49:27;;;;;;;33.70;11.77;;;;;;;10.78;100.00;101614.25;5127177;27;20027;-76
2021/10/14 04:51:53;;;;;;;32.37;12.33;;;;;;;10.75;100.00;101622.56;5128114;27;20023;-77
2021/10/14 04:54:18;;;;;;;31.93;10.63;;;;;;;10.74;100.00;101604.84;5126626;27;20033;-77
2021/10/14 04:56:43;;;;;;;29.73;10.23;;;;;;;10.71;100.00;101594.47;5127115;27;20459;-77
2021/10/14 04:59:09;;;;;;;31.13;9.40;;;;;;;10.69;100.00;101583.91;5128102;27;20027;-77
2021/10/14 05:01:34;;;;;;;20.33;8.70;;;;;;;10.70;100.00;101582.06;5126880;28;20161;-77
2021/10/14 05:04:00;;;;;;;23.10;9.40;;;;;;;10.69;100.00;101570.56;5127598;28;20349;-77
2021/10/14 05:06:25;;;;;;;35.40;9.90;;;;;;;10.57;100.00;101548.50;5127975;27;20288;-77
2021/10/14 05:08:51;;;;;;;28.35;9.65;;;;;;;10.57;100.00;101566.34;5126922;27;20041;-77
2021/10/14 05:11:16;;;;;;;24.07;8.90;;;;;;;10.57;100.00;101567.19;5127835;28;20072;-77
2021/10/14 05:13:42;;;;;;;22.40;9.38;;;;;;;10.57;100.00;101561.84;5127686;27;20187;-77
2021/10/14 05:16:07;;;;;;;36.80;9.93;;;;;;;10.53;100.00;101560.44;5127938;28;20135;-77
2021/10/14 05:18:33;;;;;;;30.55;10.57;;;;;;;10.60;100.00;101573.25;5109667;27;20031;-78
2021/10/14 05:20:58;;;;;;;26.87;9.27;;;;;;;10.55;100.00;101574.50;5126818;27;20347;-78
2021/10/14 05:23:24;;;;;;;26.17;8.97;;;;;;;10.54;100.00;101580.00;5126696;28;20481;-78
2021/10/14 05:25:49;;;;;;;25.00;9.30;;;;;;;10.54;100.00;101578.16;5127020;27;20035;-78
2021/10/14 05:28:15;;;;;;;25.63;8.93;;;;;;;10.47;100.00;101574.38;5126804;27;20056;-78
2021/10/14 05:30:41;;;;;;;23.50;7.60;;;;;;;10.51;100.00;101589.16;5126641;27;20091;-78
2021/10/14 05:33:06;;;;;;;20.48;7.20;;;;;;;10.62;100.00;101589.97;5129615;27;20039;-78
2021/10/14 05:35:32;;;;;;;13.82;6.88;;;;;;;10.56;100.00;101594.06;5113462;27;20104;-79
2021/10/14 05:37:58;;;;;;;18.05;6.28;;;;;;;10.54;100.00;101588.84;5113931;27;20027;-78
2021/10/14 05:40:23;;;;;;;20.83;7.20;;;;;;;10.52;100.00;101588.16;5131584;27;20031;-78
2021/10/14 05:42:49;;;;;;;15.97;6.50;;;;;;;10.55;100.00;101595.03;5130824;27;20110;-78
2021/10/14 05:45:14;;;;;;;12.35;5.55;;;;;;;10.47;100.00;101592.22;5131500;27;20061;-80
2021/10/14 05:47:40;;;;;;;16.23;6.60;;;;;;;10.50;100.00;101595.44;5132095;27;20484;-79
2021/10/14 05:50:06;;;;;;;15.93;5.70;;;;;;;10.54;100.00;101599.53;5131374;27;20432;-79
2021/10/14 05:52:32;;;;;;;;;;;;;;;10.52;100.00;101598.81;5131981;27;20042;-79
2021/10/14 05:54:59;;;;;;;;;;;;;;;10.52;100.00;101585.47;5130422;27;19916;-80
2021/10/14 05:57:25;;;;;;;15.02;4.85;;;;;;;10.50;100.00;101587.44;5130440;27;19918;-78
2021/10/14 05:59:50;;;;;;;17.73;5.38;;;;;;;10.47;100.00;101586.91;5130294;27;20118;-78
2021/10/14 06:02:16;;;;;;;10.97;4.07;;;;;;;10.47;100.00;101598.41;5130374;27;20115;-80
2021/10/14 06:04:42;;;;;;;9.40;3.22;;;;;;;10.43;100.00;101585.50;5129960;27;20480;-78
2021/10/14 06:07:07;;;;;;;16.75;4.63;;;;;;;10.37;100.00;101581.53;5130209;27;20442;-78
2021/10/14 06:09:33;;;;;;;10.50;3.17;;;;;;;10.41;100.00;101593.63;5130142;27;20375;-78
2021/10/14 06:11:58;;;;;;;5.72;3.05;;;;;;;10.49;100.00;101592.94;5129821;27;20455;-78
2021/10/14 06:14:24;;;;;;;16.10;3.20;;;;;;;10.48;100.00;101586.72;5130665;27;20027;-77
2021/10/14 06:16:49;;;;;;;9.17;2.93;;;;;;;10.41;100.00;101574.09;5129938;27;20042;-78
2021/10/14 06:19:15;;;;;;;10.47;2.03;;;;;;;10.47;100.00;101565.53;5129879;27;20027;-77
2021/10/14 06:21:40;;;;;;;8.98;2.90;;;;;;;10.53;100.00;101573.78;5112974;27;20059;-77
2021/10/14 06:24:07;;;;;;;12.60;3.93;;;;;;;10.53;100.00;101570.28;5129672;27;20501;-78
2021/10/14 06:26:33;;;;;;;11.50;2.88;;;;;;;10.55;100.00;101576.34;5130822;27;20045;-78
2021/10/14 06:28:58;;;;;;;6.78;2.85;;;;;;;10.49;100.00;101566.25;5129731;27;20046;-78
2021/10/14 06:31:24;;;;;;;14.07;2.60;;;;;;;10.60;100.00;101570.56;5130485;27;20038;-78
2021/10/14 06:33:49;;;;;;;8.80;2.37;;;;;;;10.65;100.00;101569.19;5129346;27;20296;-79
2021/10/14 06:36:15;;;;;;;12.07;2.87;;;;;;;10.64;100.00;101553.28;5111383;27;20062;-79
2021/10/14 06:38:40;;;;;;;5.97;2.50;;;;;;;10.77;100.00;101569.84;5129610;27;20046;-78
2021/10/14 06:41:05;;;;;;;12.27;2.23;;;;;;;10.87;100.00;101562.66;5129690;27;20027;-79
2021/10/14 06:43:31;;;;;;;9.82;1.52;;;;;;;10.85;100.00;101543.25;5111695;27;20118;-79
2021/10/14 06:45:57;;;;;;;6.35;1.73;;;;;;;10.89;100.00;101533.97;5130632;27;20478;-79
2021/10/14 06:48:22;;;;;;;4.60;1.97;;;;;;;11.03;100.00;101529.13;5130769;27;20027;-79
2021/10/14 06:50:48;;;;;;;5.00;1.60;;;;;;;11.12;100.00;101522.91;5129330;27;20061;-80
2021/10/14 06:53:13;;;;;;;7.97;1.40;;;;;;;11.15;100.00;101522.63;5129170;27;20088;-79
2021/10/14 06:55:59;;;;;;;6.18;1.30;;;;;;;11.19;100.00;101522.19;5128874;27;20481;-80
2021/10/14 06:58:24;;;;;;;3.25;1.45;;;;;;;11.20;100.00;101521.19;5128192;27;20171;-80
2021/10/14 07:00:50;;;;;;;8.20;1.50;;;;;;;11.20;100.00;101498.97;5129166;27;20110;-80
2021/10/14 07:03:15;;;;;;;6.23;3.17;;;;;;;11.03;100.00;101491.72;5111690;27;20035;-81
2021/10/14 07:05:41;;;;;;;3.97;1.37;;;;;;;11.19;100.00;101478.56;5112111;27;20031;-82
2021/10/14 07:08:06;;;;;;;8.03;1.50;;;;;;;11.22;100.00;101474.78;5112009;27;20034;-82
2021/10/14 07:10:32;;;;;;;8.40;1.40;;;;;;;11.27;100.00;101477.84;5128936;27;20031;-82
2021/10/14 07:13:04;;;;;;;3.43;1.17;;;;;;;11.36;100.00;101467.06;5129914;27;20106;-82
2021/10/14 07:15:29;;;;;;;6.57;1.33;;;;;;;11.38;100.00;101457.06;5128680;27;20368;-83
2021/10/14 07:17:55;;;;;;;5.30;1.10;;;;;;;11.40;100.00;101457.78;5128908;27;20109;-82
2021/10/14 07:20:20;;;;;;;2.40;0.70;;;;;;;11.34;100.00;101452.19;5128925;27;20015;-83
2021/10/14 07:22:46;;;;;;;4.82;0.80;;;;;;;11.41;100.00;101454.09;5129716;27;20309;-81
2021/10/14 07:25:12;;;;;;;2.60;1.03;;;;;;;11.55;100.00;101449.22;5111449;27;20033;-81
2021/10/14 07:27:38;;;;;;;6.35;1.20;;;;;;;11.47;100.00;101447.31;5112004;27;20058;-81
2021/10/14 07:30:06;;;;;;;3.63;1.57;;;;;;;11.53;100.00;101451.22;5128753;27;20123;-81
2021/10/14 07:32:31;;;;;;;4.10;0.90;;;;;;;11.66;100.00;101441.00;5129677;27;20134;-81
2021/10/14 07:34:57;;;;;;;4.85;1.30;;;;;;;11.48;100.00;101434.78;5128199;27;20539;-80
2021/10/14 07:37:23;;;;;;;5.70;1.05;;;;;;;11.49;100.00;101439.13;5128458;27;20157;-81
2021/10/14 07:39:48;;;;;;;6.47;0.80;;;;;;;11.60;100.00;101439.75;5128410;27;20092;-81
2021/10/14 07:42:14;;;;;;;2.73;1.20;;;;;;;11.59;100.00;101431.91;5128250;27;20492;-81
2021/10/14 07:44:40;;;;;;;4.03;0.90;;;;;;;11.67;100.00;101431.13;5128812;27;20489;-80
2021/10/14 07:47:05;;;;;;;6.13;1.70;;;;;;;11.87;100.00;101446.06;5128439;27;20060;-80
2021/10/14 07:49:31;;;;;;;7.30;1.08;;;;;;;11.86;100.00;101444.34;5128895;27;20042;-80
2021/10/14 07:51:57;;;;;;;4.10;0.95;;;;;;;11.98;100.00;101451.16;5110939;27;20061;-80
2021/10/14 07:54:22;;;;;;;5.70;1.08;;;;;;;11.95;100.00;101447.97;5127762;27;20434;-80
2021/10/14 07:56:48;;;;;;;4.60;0.85;;;;;;;12.24;100.00;101461.91;5128011;27;20140;-80
2021/10/14 07:59:14;;;;;;;3.00;0.95;;;;;;;12.20;100.00;101460.53;5127941;27;20039;-79
2021/10/14 08:01:39;;;;;;;4.03;0.70;;;;;;;12.23;100.00;101454.03;5110649;27;20364;-80
2021/10/14 08:04:05;;;;;;;4.77;0.93;;;;;;;12.28;100.00;101461.59;5110263;27;20046;-78
2021/10/14 08:06:31;;;;;;;;;;;;;;;12.23;100.00;101464.75;5128167;27;20062;-79
2021/10/14 08:08:56;;;;;;;;;;;;;;;12.23;100.00;101454.03;5127806;27;19965;-79
2021/10/14 08:11:22;;;;;;;3.90;0.93;;;;;;;12.16;100.00;101442.28;5127534;27;19911;-79
2021/10/14 08:13:47;;;;;;;9.93;0.90;;;;;;;12.42;100.00;101450.31;5127330;27;20047;-79
2021/10/14 08:16:13;;;;;;;12.07;1.63;;;;;;;12.58;100.00;101455.78;5127379;27;20379;-79
2021/10/14 08:18:39;;;;;;;5.73;0.83;;;;;;;12.27;100.00;101443.84;5127444;27;20087;-76
2021/10/14 08:21:04;;;;;;;7.00;0.87;;;;;;;12.47;100.00;101445.31;5128513;27;20429;-79
2021/10/14 08:23:30;;;;;;;5.10;1.00;;;;;;;12.32;100.00;101454.94;5126990;27;20046;-79
2021/10/14 08:25:56;;;;;;;4.05;0.93;;;;;;;12.30;100.00;101451.56;5127168;27;20285;-78
2021/10/14 08:28:26;;;;;;;5.13;1.05;;;;;;;12.30;100.00;101470.31;5127267;27;20126;-79
2021/10/14 08:30:52;;;;;;;2.22;1.00;;;;;;;12.52;100.00;101459.06;5110023;27;20505;-78
2021/10/14 08:33:18;;;;;;;6.57;1.20;;;;;;;12.37;100.00;101463.34;5128024;27;20038;-79
2021/10/14 08:35:44;;;;;;;5.00;0.90;;;;;;;12.48;100.00;101460.41;5128224;27;20057;-78
2021/10/14 08:38:10;;;;;;;2.95;1.00;;;;;;;12.56;100.00;101463.13;5128381;27;20391;-78
2021/10/14 08:40:37;;;;;;;6.18;0.88;;;;;;;12.82;100.00;101459.59;5126431;27;20337;-78
2021/10/14 08:43:05;;;;;;;;;;;;;;;12.64;100.00;101451.59;5129119;27;20637;-78
2021/10/14 08:45:35;;;;;;;4.07;1.00;;;;;;;12.71;100.00;101457.19;5111021;28;20309;-78
2021/10/14 08:48:02;;;;;;;6.68;1.30;;;;;;;12.65;100.00;101464.84;5111343;27;20033;-78
2021/10/14 08:50:28;;;;;;;6.50;1.63;;;;;;;12.48;100.00;101468.44;5129092;27;20087;-78
2021/10/14 08:52:54;;;;;;;7.03;1.95;;;;;;;12.28;100.00;101485.69;5128274;27;20418;-79
2021/10/14 08:55:20;;;;;;;6.28;1.30;;;;;;;12.13;100.00;101486.25;5110750;28;20039;-78
2021/10/14 08:57:45;;;;;;;4.00;1.52;;;;;;;11.97;100.00;101480.75;5128325;28;20042;-78
2021/10/14 09:00:11;;;;;;;5.18;1.60;;;;;;;11.91;100.00;101482.19;5128428;27;20028;-80
2021/10/14 09:02:37;;;;;;;;;;;;;;;12.19;100.00;101482.94;5128595;27;20463;-80
2021/10/14 09:05:06;;;;;;;;;;;;;;;12.46;100.00;101489.19;5128556;28;19926;-80
2021/10/14 09:07:32;;;;;;;2.90;0.80;;;;;;;12.40;100.00;101485.28;5133213;27;19907;-81
2021/10/14 09:10:04;;;;;;;3.25;0.82;;;;;;;12.27;100.00;101484.00;5133276;27;20754;-81
2021/10/14 09:12:34;;;;;;;2.40;0.80;;;;;;;12.33;100.00;101476.19;5133678;27;20031;-82
2021/10/14 09:15:05;;;;;;;3.80;0.98;;;;;;;11.92;100.00;101465.16;5132680;27;20061;-82
2021/10/14 09:17:36;;;;;;;2.10;0.50;;;;;;;12.07;100.00;101473.47;5115850;27;20031;-81
2021/10/14 09:20:20;;;;;;;2.00;0.57;;;;;;;12.17;100.00;101470.72;5132907;27;20023;-83
2021/10/14 09:23:03;;;;;;;1.13;0.57;;;;;;;12.46;100.00;101470.44;5133241;27;20363;-80
2021/10/14 09:25:32;;;;;;;3.83;0.80;;;;;;;12.64;100.00;101460.50;5132229;27;20140;-79
2021/10/14 09:28:24;;;;;;;2.88;0.75;;;;;;;12.54;100.00;101456.25;5115065;27;20616;-80
2021/10/14 09:31:04;;;;;;;1.42;0.70;;;;;;;12.68;100.00;101453.81;5128103;27;20099;-80
2021/10/14 09:33:46;;;;;;;1.15;0.73;;;;;;;12.89;100.00;101444.53;5114926;27;20040;-79
2021/10/14 09:36:22;;;;;;;1.45;0.60;;;;;;;13.70;100.00;101445.81;5133090;27;20031;-79
2021/10/14 09:38:49;;;;;;;3.50;0.80;;;;;;;13.71;100.00;101429.53;5133575;27;20049;-78
2021/10/14 09:41:18;;;;;;;2.30;0.70;;;;;;;13.89;99.47;101432.06;5133390;27;20038;-77
2021/10/14 09:43:48;;;;;;;1.60;0.70;;;;;;;14.36;97.44;101426.00;5114769;27;20065;-79
2021/10/14 09:46:54;;;;;;;6.78;1.45;;;;;;;15.18;94.53;101419.53;5114701;27;20483;-80
2021/10/14 09:49:32;;;;;;;1.00;0.77;;;;;;;15.13;90.62;101420.03;5069021;28;20449;-80
2021/10/14 09:52:00;;;;;;;3.70;1.20;;;;;;;14.49;90.49;101420.09;5052219;28;20135;-82
2021/10/14 09:54:30;;;;;;;1.00;0.70;;;;;;;14.13;92.96;101422.34;5096113;27;20041;-80
2021/10/14 09:56:57;;;;;;;2.40;0.85;;;;;;;13.55;93.95;101420.63;5131608;27;20035;-80
2021/10/14 09:59:23;;;;;;;1.33;0.88;;;;;;;13.39;96.23;101429.50;5132542;27;20027;-80
2021/10/14 10:01:52;;;;;;;1.40;1.10;;;;;;;13.09;97.63;101429.88;5113928;27;20075;-79
2021/10/14 10:04:24;;;;;;;1.55;1.13;;;;;;;12.96;99.14;101428.66;5130627;27;20031;-84
2021/10/14 10:06:50;;;;;;;2.17;1.20;;;;;;;12.85;99.80;101433.31;5130719;27;20070;-81
2021/10/14 10:09:19;;;;;;;2.00;1.10;;;;;;;12.86;100.00;101431.47;5130669;27;20058;-81
2021/10/14 10:11:52;;;;;;;3.40;1.30;;;;;;;12.57;100.00;101435.34;5131569;27;20027;-81
2021/10/14 10:14:25;;;;;;;1.63;1.25;;;;;;;12.52;100.00;101431.44;5130199;27;20085;-80
2021/10/14 10:16:56;;;;;;;2.20;1.52;;;;;;;12.50;100.00;101434.28;5113467;27;20037;-81
2021/10/14 10:19:45;;;;;;;2.03;1.40;;;;;;;12.63;100.00;101434.69;5129825;27;20050;-79
2021/10/14 10:22:31;;;;;;;2.50;1.40;;;;;;;12.80;100.00;101429.44;5131474;27;20050;-80
2021/10/14 10:25:25;;;;;;;1.55;1.27;;;;;;;12.79;100.00;101433.94;5113651;27;20395;-80
2021/10/14 10:27:52;;;;;;;1.23;1.02;;;;;;;12.71;100.00;101403.59;5130524;27;20103;-80
2021/10/14 10:30:29;;;;;;;2.85;1.38;;;;;;;12.43;100.00;101391.25;5130651;27;20031;-80
2021/10/14 10:32:54;;;;;;;6.88;2.25;;;;;;;12.52;100.00;101413.53;5113805;27;20345;-78
2021/10/14 10:35:46;;;;;;;2.78;1.30;;;;;;;12.64;100.00;101423.00;5130584;27;20027;-80
2021/10/14 10:38:24;;;;;;;1.83;1.40;;;;;;;12.83;100.00;101418.38;5130676;27;20131;-79
2021/10/14 10:40:55;;;;;;;1.30;1.20;;;;;;;12.88;100.00;101416.06;5130794;27;20030;-79
2021/10/14 10:43:29;;;;;;;3.55;1.50;;;;;;;12.95;100.00;101411.75;5113130;27;20031;-79
2021/10/14 10:45:57;;;;;;;1.73;1.33;;;;;;;13.04;100.00;101400.06;5131270;27;20043;-79
2021/10/14 10:48:40;;;;;;;2.42;1.45;;;;;;;13.23;100.00;101398.09;5129656;27;20144;-78
2021/10/14 10:51:08;;;;;;;4.32;1.83;;;;;;;13.25;100.00;101391.56;5112382;27;20031;-78
2021/10/14 10:53:45;;;;;;;2.67;1.33;;;;;;;13.40;100.00;101383.75;5111722;27;20027;-77
2021/10/14 10:56:37;;;;;;;5.20;1.73;;;;;;;13.55;99.70;101380.41;5129445;27;20031;-77
2021/10/14 10:59:04;;;;;;;3.42;1.67;;;;;;;13.73;98.58;101376.53;5129653;27;20363;-77
2021/10/14 11:01:30;;;;;;;;;;;;;;;14.27;96.40;101370.59;5130640;27;20444;-77
2021/10/14 11:03:58;;;;;;;;;;;;;;;14.53;94.36;101365.00;5130383;27;19973;-77
2021/10/14 11:06:26;;;;;;;1.80;1.15;;;;;;;14.45;93.66;101356.13;5131127;27;19912;-78
2021/10/14 11:08:52;;;;;;;2.03;1.27;;;;;;;14.24;93.01;101349.47;5131130;27;20027;-76
2021/10/14 11:11:19;;;;;;;;;;;;;;;13.90;94.06;101344.31;5131406;27;20031;-77
2021/10/14 11:13:47;;;;;;;3.17;1.52;;;;;;;13.54;94.72;101335.81;5129752;27;19922;-77